sensor_id;sensor_type;location;lat;lon;timestamp;pressure;altitude;pressure_sealevel;temperature
62930;BMP280;49036;42.782;23.108;2023-08-31T00:02:10;93520.25;;;15.64
62930;BMP280;49036;42.782;23.108;2023-08-31T00:04:36;93524.50;;;15.65
62930;BMP280;49036;42.782;23.108;2023-08-31T00:07:02;93523.94;;;15.69
62930;BMP280;49036;42.782;23.108;2023-08-31T00:09:27;93520.66;;;15.74
62930;BMP280;49036;42.782;23.108;2023-08-31T00:11:55;93523.72;;;15.80
62930;BMP280;49036;42.782;23.108;2023-08-31T00:14:22;93515.97;;;15.79
62930;BMP280;49036;42.782;23.108;2023-08-31T00:16:48;93522.91;;;15.78
62930;BMP280;49036;42.782;23.108;2023-08-31T00:19:14;93523.72;;;15.80
62930;BMP280;49036;42.782;23.108;2023-08-31T00:21:40;93523.88;;;15.84
62930;BMP280;49036;42.782;23.108;2023-08-31T00:24:06;93527.16;;;15.79
62930;BMP280;49036;42.782;23.108;2023-08-31T00:26:33;93533.94;;;15.74
62930;BMP280;49036;42.782;23.108;2023-08-31T00:28:58;93531.13;;;15.74
62930;BMP280;49036;42.782;23.108;2023-08-31T00:31:24;93534.56;;;15.72
62930;BMP280;49036;42.782;23.108;2023-08-31T00:33:50;93540.09;;;15.70
62930;BMP280;49036;42.782;23.108;2023-08-31T00:36:15;93528.81;;;15.68
62930;BMP280;49036;42.782;23.108;2023-08-31T00:38:43;93540.00;;;15.68
62930;BMP280;49036;42.782;23.108;2023-08-31T00:41:08;93530.81;;;15.66
62930;BMP280;49036;42.782;23.108;2023-08-31T00:43:34;93531.53;;;15.66
62930;BMP280;49036;42.782;23.108;2023-08-31T00:46:00;93536.03;;;15.57
62930;BMP280;49036;42.782;23.108;2023-08-31T00:48:26;93533.72;;;15.52
62930;BMP280;49036;42.782;23.108;2023-08-31T00:50:51;93532.97;;;15.51
62930;BMP280;49036;42.782;23.108;2023-08-31T00:53:17;93546.00;;;15.45
62930;BMP280;49036;42.782;23.108;2023-08-31T00:55:46;93542.13;;;15.36
62930;BMP280;49036;42.782;23.108;2023-08-31T00:58:13;93529.78;;;15.25
62930;BMP280;49036;42.782;23.108;2023-08-31T01:09:40;93550.94;;;14.36
62930;BMP280;49036;42.782;23.108;2023-08-31T01:12:12;93544.66;;;14.22
62930;BMP280;49036;42.782;23.108;2023-08-31T01:14:56;93547.72;;;14.12
62930;BMP280;49036;42.782;23.108;2023-08-31T01:17:26;93553.81;;;14.09
62930;BMP280;49036;42.782;23.108;2023-08-31T01:19:55;93553.44;;;14.01
62930;BMP280;49036;42.782;23.108;2023-08-31T01:22:43;93555.19;;;13.94
62930;BMP280;49036;42.782;23.108;2023-08-31T01:25:09;93553.19;;;13.96
62930;BMP280;49036;42.782;23.108;2023-08-31T01:27:37;93552.50;;;13.96
62930;BMP280;49036;42.782;23.108;2023-08-31T01:30:04;93546.94;;;13.96
62930;BMP280;49036;42.782;23.108;2023-08-31T01:32:30;93561.69;;;13.85
62930;BMP280;49036;42.782;23.108;2023-08-31T01:34:56;93563.19;;;13.72
62930;BMP280;49036;42.782;23.108;2023-08-31T01:37:35;93565.16;;;13.70
62930;BMP280;49036;42.782;23.108;2023-08-31T01:40:23;93560.22;;;13.54
62930;BMP280;49036;42.782;23.108;2023-08-31T01:42:50;93553.31;;;13.42
62930;BMP280;49036;42.782;23.108;2023-08-31T01:45:21;93563.19;;;13.45
62930;BMP280;49036;42.782;23.108;2023-08-31T01:47:48;93559.69;;;13.44
62930;BMP280;49036;42.782;23.108;2023-08-31T01:50:13;93551.31;;;13.44
62930;BMP280;49036;42.782;23.108;2023-08-31T01:52:39;93546.16;;;13.39
62930;BMP280;49036;42.782;23.108;2023-08-31T01:55:05;93556.69;;;13.26
62930;BMP280;49036;42.782;23.108;2023-08-31T01:57:31;93559.38;;;13.11
62930;BMP280;49036;42.782;23.108;2023-08-31T01:59:57;93566.25;;;12.96
62930;BMP280;49036;42.782;23.108;2023-08-31T02:02:22;93570.16;;;12.91
62930;BMP280;49036;42.782;23.108;2023-08-31T02:04:48;93560.75;;;12.84
62930;BMP280;49036;42.782;23.108;2023-08-31T02:07:15;93573.84;;;12.82
62930;BMP280;49036;42.782;23.108;2023-08-31T02:09:41;93576.75;;;12.84
62930;BMP280;49036;42.782;23.108;2023-08-31T02:12:06;93578.91;;;12.85
62930;BMP280;49036;42.782;23.108;2023-08-31T02:14:35;93573.06;;;12.93
62930;BMP280;49036;42.782;23.108;2023-08-31T02:17:00;93579.44;;;12.95
62930;BMP280;49036;42.782;23.108;2023-08-31T02:19:26;93573.06;;;12.93
62930;BMP280;49036;42.782;23.108;2023-08-31T02:21:51;93571.41;;;13.02
62930;BMP280;49036;42.782;23.108;2023-08-31T02:24:17;93575.31;;;12.96
62930;BMP280;49036;42.782;23.108;2023-08-31T02:26:42;93571.59;;;12.92
62930;BMP280;49036;42.782;23.108;2023-08-31T02:29:08;93561.59;;;12.87
62930;BMP280;49036;42.782;23.108;2023-08-31T02:31:33;93561.25;;;12.81
62930;BMP280;49036;42.782;23.108;2023-08-31T02:33:58;93558.16;;;12.75
62930;BMP280;49036;42.782;23.108;2023-08-31T02:36:24;93556.78;;;12.76
62930;BMP280;49036;42.782;23.108;2023-08-31T02:38:49;93554.53;;;12.72
62930;BMP280;49036;42.782;23.108;2023-08-31T02:41:16;93559.72;;;12.78
62930;BMP280;49036;42.782;23.108;2023-08-31T02:43:44;93564.16;;;12.83
62930;BMP280;49036;42.782;23.108;2023-08-31T02:46:09;93564.59;;;12.91
62930;BMP280;49036;42.782;23.108;2023-08-31T02:48:35;93564.59;;;12.91
62930;BMP280;49036;42.782;23.108;2023-08-31T02:51:00;93567.72;;;13.11
62930;BMP280;49036;42.782;23.108;2023-08-31T02:53:30;93570.81;;;13.44
62930;BMP280;49036;42.782;23.108;2023-08-31T02:55:56;93578.38;;;13.55
62930;BMP280;49036;42.782;23.108;2023-08-31T02:58:21;93575.56;;;13.55
62930;BMP280;49036;42.782;23.108;2023-08-31T03:00:47;93578.56;;;13.46
62930;BMP280;49036;42.782;23.108;2023-08-31T03:03:15;93576.59;;;13.21
62930;BMP280;49036;42.782;23.108;2023-08-31T03:05:40;93574.00;;;12.98
62930;BMP280;49036;42.782;23.108;2023-08-31T03:08:06;93570.06;;;12.89
62930;BMP280;49036;42.782;23.108;2023-08-31T03:10:31;93576.28;;;12.76
62930;BMP280;49036;42.782;23.108;2023-08-31T03:12:57;93583.59;;;12.69
62930;BMP280;49036;42.782;23.108;2023-08-31T03:15:22;93585.34;;;12.62
62930;BMP280;49036;42.782;23.108;2023-08-31T03:17:48;93584.09;;;12.66
62930;BMP280;49036;42.782;23.108;2023-08-31T03:20:14;93579.75;;;12.88
62930;BMP280;49036;42.782;23.108;2023-08-31T03:22:39;93583.69;;;12.96
62930;BMP280;49036;42.782;23.108;2023-08-31T03:25:05;93588.94;;;12.90
62930;BMP280;49036;42.782;23.108;2023-08-31T03:27:30;93592.13;;;12.85
62930;BMP280;49036;42.782;23.108;2023-08-31T03:29:56;93598.13;;;12.68
62930;BMP280;49036;42.782;23.108;2023-08-31T03:32:21;93589.41;;;12.48
62930;BMP280;49036;42.782;23.108;2023-08-31T03:34:46;93602.59;;;12.47
62930;BMP280;49036;42.782;23.108;2023-08-31T03:37:13;93602.09;;;12.51
62930;BMP280;49036;42.782;23.108;2023-08-31T03:39:38;93595.47;;;12.70
62930;BMP280;49036;42.782;23.108;2023-08-31T03:42:06;93593.91;;;13.06
62930;BMP280;49036;42.782;23.108;2023-08-31T03:44:31;93585.88;;;13.25
62930;BMP280;49036;42.782;23.108;2023-08-31T03:46:57;93594.78;;;13.36
62930;BMP280;49036;42.782;23.108;2023-08-31T03:49:22;93595.28;;;13.18
62930;BMP280;49036;42.782;23.108;2023-08-31T03:51:48;93609.28;;;13.07
62930;BMP280;49036;42.782;23.108;2023-08-31T03:54:14;93599.66;;;12.96
62930;BMP280;49036;42.782;23.108;2023-08-31T03:56:39;93605.97;;;12.96
62930;BMP280;49036;42.782;23.108;2023-08-31T03:59:05;93612.25;;;12.97
62930;BMP280;49036;42.782;23.108;2023-08-31T04:01:30;93609.59;;;12.99
62930;BMP280;49036;42.782;23.108;2023-08-31T04:03:56;93615.81;;;13.11
62930;BMP280;49036;42.782;23.108;2023-08-31T04:06:22;93628.00;;;13.32
62930;BMP280;49036;42.782;23.108;2023-08-31T04:08:47;93626.91;;;13.64
62930;BMP280;49036;42.782;23.108;2023-08-31T04:11:12;93620.91;;;13.83
62930;BMP280;49036;42.782;23.108;2023-08-31T04:13:38;93627.72;;;13.94
62930;BMP280;49036;42.782;23.108;2023-08-31T04:16:04;93627.63;;;14.06
62930;BMP280;49036;42.782;23.108;2023-08-31T04:18:29;93632.88;;;14.13
62930;BMP280;49036;42.782;23.108;2023-08-31T04:20:55;93642.47;;;14.24
62930;BMP280;49036;42.782;23.108;2023-08-31T04:23:20;93643.78;;;14.37
62930;BMP280;49036;42.782;23.108;2023-08-31T04:25:46;93648.44;;;14.61
62930;BMP280;49036;42.782;23.108;2023-08-31T04:28:13;93655.28;;;14.88
62930;BMP280;49036;42.782;23.108;2023-08-31T04:30:39;93656.59;;;15.16
62930;BMP280;49036;42.782;23.108;2023-08-31T04:33:06;93646.31;;;15.37
62930;BMP280;49036;42.782;23.108;2023-08-31T04:35:32;93659.59;;;15.52
62930;BMP280;49036;42.782;23.108;2023-08-31T04:37:58;93655.69;;;15.75
62930;BMP280;49036;42.782;23.108;2023-08-31T04:40:23;93661.69;;;16.01
62930;BMP280;49036;42.782;23.108;2023-08-31T04:42:51;93662.53;;;16.21
62930;BMP280;49036;42.782;23.108;2023-08-31T04:45:17;93660.97;;;16.51
62930;BMP280;49036;42.782;23.108;2023-08-31T04:47:43;93661.94;;;16.76
62930;BMP280;49036;42.782;23.108;2023-08-31T04:50:08;93662.88;;;17.00
62930;BMP280;49036;42.782;23.108;2023-08-31T04:52:34;93662.00;;;17.33
62930;BMP280;49036;42.782;23.108;2023-08-31T04:55:05;93667.97;;;17.63
62930;BMP280;49036;42.782;23.108;2023-08-31T04:57:33;93666.34;;;17.76
62930;BMP280;49036;42.782;23.108;2023-08-31T04:59:58;93666.31;;;17.95
62930;BMP280;49036;42.782;23.108;2023-08-31T05:02:24;93660.22;;;18.23
62930;BMP280;49036;42.782;23.108;2023-08-31T05:04:49;93659.72;;;18.50
62930;BMP280;49036;42.782;23.108;2023-08-31T05:07:15;93667.41;;;18.71
62930;BMP280;49036;42.782;23.108;2023-08-31T05:09:40;93660.53;;;18.76
62930;BMP280;49036;42.782;23.108;2023-08-31T05:12:06;93665.03;;;18.86
62930;BMP280;49036;42.782;23.108;2023-08-31T05:16:42;93669.41;;;18.91
62930;BMP280;49036;42.782;23.108;2023-08-31T05:19:08;93661.03;;;18.93
62930;BMP280;49036;42.782;23.108;2023-08-31T05:21:48;93673.94;;;18.78
62930;BMP280;49036;42.782;23.108;2023-08-31T05:24:13;93670.31;;;18.73
62930;BMP280;49036;42.782;23.108;2023-08-31T05:26:39;93672.41;;;18.97
62930;BMP280;49036;42.782;23.108;2023-08-31T05:29:05;93672.00;;;19.06
62930;BMP280;49036;42.782;23.108;2023-08-31T05:31:31;93674.56;;;18.98
62930;BMP280;49036;42.782;23.108;2023-08-31T05:33:56;93662.25;;;19.09
62930;BMP280;49036;42.782;23.108;2023-08-31T05:36:22;93666.78;;;19.21
62930;BMP280;49036;42.782;23.108;2023-08-31T05:38:47;93666.28;;;19.28
62930;BMP280;49036;42.782;23.108;2023-08-31T05:41:13;93667.34;;;19.39
62930;BMP280;49036;42.782;23.108;2023-08-31T05:43:38;93669.69;;;19.48
62930;BMP280;49036;42.782;23.108;2023-08-31T05:46:07;93671.63;;;19.94
62930;BMP280;49036;42.782;23.108;2023-08-31T05:48:34;93674.59;;;20.00
62930;BMP280;49036;42.782;23.108;2023-08-31T05:51:00;93668.97;;;20.28
62930;BMP280;49036;42.782;23.108;2023-08-31T05:53:25;93677.50;;;20.59
62930;BMP280;49036;42.782;23.108;2023-08-31T05:55:51;93669.84;;;20.64
62930;BMP280;49036;42.782;23.108;2023-08-31T05:58:16;93670.00;;;20.70
62930;BMP280;49036;42.782;23.108;2023-08-31T06:00:42;93668.09;;;20.79
62930;BMP280;49036;42.782;23.108;2023-08-31T06:03:08;93672.38;;;21.14
62930;BMP280;49036;42.782;23.108;2023-08-31T06:05:34;93675.56;;;21.30
62930;BMP280;49036;42.782;23.108;2023-08-31T06:08:00;93682.31;;;21.49
62930;BMP280;49036;42.782;23.108;2023-08-31T06:10:26;93691.75;;;21.63
62930;BMP280;49036;42.782;23.108;2023-08-31T06:12:51;93691.13;;;22.05
62930;BMP280;49036;42.782;23.108;2023-08-31T06:15:17;93696.78;;;22.05
62930;BMP280;49036;42.782;23.108;2023-08-31T06:17:43;93702.19;;;21.93
62930;BMP280;49036;42.782;23.108;2023-08-31T06:20:09;93708.34;;;21.81
62930;BMP280;49036;42.782;23.108;2023-08-31T06:22:35;93711.03;;;21.07
62930;BMP280;49036;42.782;23.108;2023-08-31T06:25:01;93708.16;;;20.73
62930;BMP280;49036;42.782;23.108;2023-08-31T06:27:28;93718.75;;;21.05
62930;BMP280;49036;42.782;23.108;2023-08-31T06:29:53;93714.66;;;21.12
62930;BMP280;49036;42.782;23.108;2023-08-31T06:32:19;93722.44;;;20.81
62930;BMP280;49036;42.782;23.108;2023-08-31T06:34:45;93726.50;;;21.04
62930;BMP280;49036;42.782;23.108;2023-08-31T06:37:10;93730.78;;;21.39
62930;BMP280;49036;42.782;23.108;2023-08-31T06:39:36;93735.31;;;21.88
62930;BMP280;49036;42.782;23.108;2023-08-31T06:42:02;93736.41;;;21.73
62930;BMP280;49036;42.782;23.108;2023-08-31T06:44:29;93738.47;;;21.68
62930;BMP280;49036;42.782;23.108;2023-08-31T06:46:55;93739.22;;;21.71
62930;BMP280;49036;42.782;23.108;2023-08-31T06:50:38;93744.69;;;21.99
62930;BMP280;49036;42.782;23.108;2023-08-31T06:54:18;93740.16;;;22.20
62930;BMP280;49036;42.782;23.108;2023-08-31T06:56:43;93745.13;;;22.63
62930;BMP280;49036;42.782;23.108;2023-08-31T06:59:09;93741.03;;;22.30
62930;BMP280;49036;42.782;23.108;2023-08-31T07:01:34;93745.56;;;22.48
62930;BMP280;49036;42.782;23.108;2023-08-31T07:04:00;93746.47;;;22.58
62930;BMP280;49036;42.782;23.108;2023-08-31T07:06:25;93740.81;;;22.58
62930;BMP280;49036;42.782;23.108;2023-08-31T07:08:51;93752.75;;;22.53
62930;BMP280;49036;42.782;23.108;2023-08-31T07:11:17;93746.59;;;22.66
62930;BMP280;49036;42.782;23.108;2023-08-31T07:13:43;93747.03;;;22.95
62930;BMP280;49036;42.782;23.108;2023-08-31T07:16:08;93753.75;;;23.17
62930;BMP280;49036;42.782;23.108;2023-08-31T07:18:35;93742.09;;;23.45
62930;BMP280;49036;42.782;23.108;2023-08-31T07:21:01;93743.59;;;23.52
62930;BMP280;49036;42.782;23.108;2023-08-31T07:23:26;93747.13;;;23.53
62930;BMP280;49036;42.782;23.108;2023-08-31T07:25:52;93744.97;;;24.10
62930;BMP280;49036;42.782;23.108;2023-08-31T07:28:18;93751.16;;;24.62
62930;BMP280;49036;42.782;23.108;2023-08-31T07:30:43;93750.44;;;24.64
62930;BMP280;49036;42.782;23.108;2023-08-31T07:33:09;93758.47;;;24.94
62930;BMP280;49036;42.782;23.108;2023-08-31T07:35:34;93758.53;;;25.02
62930;BMP280;49036;42.782;23.108;2023-08-31T07:38:00;93759.06;;;24.78
62930;BMP280;49036;42.782;23.108;2023-08-31T07:40:25;93749.09;;;24.71
62930;BMP280;49036;42.782;23.108;2023-08-31T07:42:51;93758.28;;;24.67
62930;BMP280;49036;42.782;23.108;2023-08-31T07:45:17;93757.03;;;24.91
62930;BMP280;49036;42.782;23.108;2023-08-31T07:47:43;93760.81;;;24.35
62930;BMP280;49036;42.782;23.108;2023-08-31T07:50:09;93759.72;;;23.96
62930;BMP280;49036;42.782;23.108;2023-08-31T07:52:34;93768.34;;;24.08
62930;BMP280;49036;42.782;23.108;2023-08-31T07:55:51;93758.44;;;24.92
62930;BMP280;49036;42.782;23.108;2023-08-31T07:58:18;93759.28;;;25.12
62930;BMP280;49036;42.782;23.108;2023-08-31T08:00:43;93767.78;;;25.06
62930;BMP280;49036;42.782;23.108;2023-08-31T08:03:09;93768.44;;;24.99
62930;BMP280;49036;42.782;23.108;2023-08-31T08:05:34;93765.16;;;25.41
62930;BMP280;49036;42.782;23.108;2023-08-31T08:08:00;93771.63;;;25.53
62930;BMP280;49036;42.782;23.108;2023-08-31T08:10:25;93771.03;;;25.89
62930;BMP280;49036;42.782;23.108;2023-08-31T08:12:51;93766.81;;;26.01
62930;BMP280;49036;42.782;23.108;2023-08-31T08:15:16;93772.34;;;25.58
62930;BMP280;49036;42.782;23.108;2023-08-31T08:17:42;93771.38;;;25.15
62930;BMP280;49036;42.782;23.108;2023-08-31T08:20:07;93771.13;;;24.76
62930;BMP280;49036;42.782;23.108;2023-08-31T08:22:34;93765.81;;;24.38
62930;BMP280;49036;42.782;23.108;2023-08-31T08:25:01;93767.84;;;24.26
62930;BMP280;49036;42.782;23.108;2023-08-31T08:27:28;93776.22;;;24.14
62930;BMP280;49036;42.782;23.108;2023-08-31T08:29:53;93762.94;;;24.30
62930;BMP280;49036;42.782;23.108;2023-08-31T08:32:19;93770.66;;;24.28
62930;BMP280;49036;42.782;23.108;2023-08-31T08:34:44;93769.13;;;24.15
62930;BMP280;49036;42.782;23.108;2023-08-31T08:37:09;93772.41;;;23.91
62930;BMP280;49036;42.782;23.108;2023-08-31T08:39:35;93773.31;;;24.08
62930;BMP280;49036;42.782;23.108;2023-08-31T08:42:03;93773.31;;;24.10
62930;BMP280;49036;42.782;23.108;2023-08-31T08:44:33;93764.88;;;24.16
62930;BMP280;49036;42.782;23.108;2023-08-31T08:47:00;93719.34;;;24.80
62930;BMP280;49036;42.782;23.108;2023-08-31T08:49:26;93772.50;;;24.73
62930;BMP280;49036;42.782;23.108;2023-08-31T08:51:52;93783.91;;;24.79
62930;BMP280;49036;42.782;23.108;2023-08-31T08:54:22;93776.81;;;24.76
62930;BMP280;49036;42.782;23.108;2023-08-31T08:56:47;93766.72;;;24.59
62930;BMP280;49036;42.782;23.108;2023-08-31T08:59:13;93777.03;;;25.05
62930;BMP280;49036;42.782;23.108;2023-08-31T09:01:39;93769.41;;;25.34
62930;BMP280;49036;42.782;23.108;2023-08-31T09:04:05;93765.91;;;25.49
62930;BMP280;49036;42.782;23.108;2023-08-31T09:08:08;93761.09;;;25.90
62930;BMP280;49036;42.782;23.108;2023-08-31T09:10:42;93773.28;;;26.31
62930;BMP280;49036;42.782;23.108;2023-08-31T09:13:12;93761.88;;;26.31
62930;BMP280;49036;42.782;23.108;2023-08-31T09:15:48;93774.69;;;26.16
62930;BMP280;49036;42.782;23.108;2023-08-31T09:18:34;93761.84;;;26.13
62930;BMP280;49036;42.782;23.108;2023-08-31T09:21:00;93760.47;;;26.32
62930;BMP280;49036;42.782;23.108;2023-08-31T09:23:26;93766.91;;;26.55
62930;BMP280;49036;42.782;23.108;2023-08-31T09:27:13;93767.59;;;26.52
62930;BMP280;49036;42.782;23.108;2023-08-31T09:29:45;93764.06;;;26.73
62930;BMP280;49036;42.782;23.108;2023-08-31T09:32:18;93766.88;;;26.53
62930;BMP280;49036;42.782;23.108;2023-08-31T09:34:45;93765.44;;;26.18
62930;BMP280;49036;42.782;23.108;2023-08-31T09:37:10;93772.53;;;26.11
62930;BMP280;49036;42.782;23.108;2023-08-31T09:39:39;93777.56;;;26.43
62930;BMP280;49036;42.782;23.108;2023-08-31T09:42:05;93770.47;;;26.58
62930;BMP280;49036;42.782;23.108;2023-08-31T09:44:31;93769.69;;;27.22
62930;BMP280;49036;42.782;23.108;2023-08-31T09:46:57;93768.16;;;27.53
62930;BMP280;49036;42.782;23.108;2023-08-31T09:49:24;93768.81;;;27.72
62930;BMP280;49036;42.782;23.108;2023-08-31T09:51:51;93763.94;;;28.66
62930;BMP280;49036;42.782;23.108;2023-08-31T09:54:20;93762.91;;;28.11
62930;BMP280;49036;42.782;23.108;2023-08-31T09:56:48;93770.41;;;27.16
62930;BMP280;49036;42.782;23.108;2023-08-31T10:00:52;93764.78;;;26.62
62930;BMP280;49036;42.782;23.108;2023-08-31T10:03:18;93769.00;;;26.40
62930;BMP280;49036;42.782;23.108;2023-08-31T10:05:47;93756.94;;;26.64
62930;BMP280;49036;42.782;23.108;2023-08-31T10:08:14;93764.03;;;26.86
62930;BMP280;49036;42.782;23.108;2023-08-31T10:10:39;93760.50;;;26.53
62930;BMP280;49036;42.782;23.108;2023-08-31T10:13:05;93764.75;;;26.58
62930;BMP280;49036;42.782;23.108;2023-08-31T10:15:37;93759.06;;;26.70
62930;BMP280;49036;42.782;23.108;2023-08-31T10:18:05;93766.91;;;26.69
62930;BMP280;49036;42.782;23.108;2023-08-31T10:20:32;93775.44;;;26.49
62930;BMP280;49036;42.782;23.108;2023-08-31T10:22:59;93766.88;;;26.59
62930;BMP280;49036;42.782;23.108;2023-08-31T10:25:25;93777.59;;;26.65
62930;BMP280;49036;42.782;23.108;2023-08-31T10:27:52;93768.28;;;26.16
62930;BMP280;49036;42.782;23.108;2023-08-31T10:35:49;93771.88;;;26.47
62930;BMP280;49036;42.782;23.108;2023-08-31T10:38:31;93762.59;;;27.13
62930;BMP280;49036;42.782;23.108;2023-08-31T10:43:54;93773.88;;;27.57
62930;BMP280;49036;42.782;23.108;2023-08-31T10:46:33;93779.56;;;27.49
62930;BMP280;49036;42.782;23.108;2023-08-31T10:49:15;93780.38;;;27.11
62930;BMP280;49036;42.782;23.108;2023-08-31T10:51:54;93778.28;;;26.86
62930;BMP280;49036;42.782;23.108;2023-08-31T10:54:23;93784.69;;;26.66
62930;BMP280;49036;42.782;23.108;2023-08-31T10:57:01;93796.66;;;25.99
62930;BMP280;49036;42.782;23.108;2023-08-31T10:59:51;93795.59;;;25.24
62930;BMP280;49036;42.782;23.108;2023-08-31T11:02:36;93805.06;;;25.63
62930;BMP280;49036;42.782;23.108;2023-08-31T11:07:34;93803.56;;;25.50
62930;BMP280;49036;42.782;23.108;2023-08-31T11:10:07;93803.63;;;25.60
62930;BMP280;49036;42.782;23.108;2023-08-31T11:12:34;93798.06;;;25.86
62930;BMP280;49036;42.782;23.108;2023-08-31T11:14:59;93801.72;;;27.35
62930;BMP280;49036;42.782;23.108;2023-08-31T11:17:25;93795.75;;;28.08
62930;BMP280;49036;42.782;23.108;2023-08-31T11:19:51;93794.84;;;28.35
62930;BMP280;49036;42.782;23.108;2023-08-31T11:22:16;93800.78;;;27.97
62930;BMP280;49036;42.782;23.108;2023-08-31T11:24:42;93794.47;;;27.76
62930;BMP280;49036;42.782;23.108;2023-08-31T11:28:43;93801.56;;;27.81
62930;BMP280;49036;42.782;23.108;2023-08-31T11:31:11;93789.59;;;27.40
62930;BMP280;49036;42.782;23.108;2023-08-31T11:33:37;93798.22;;;26.88
62930;BMP280;49036;42.782;23.108;2023-08-31T11:36:03;93798.94;;;26.76
62930;BMP280;49036;42.782;23.108;2023-08-31T11:38:29;93799.63;;;26.60
62930;BMP280;49036;42.782;23.108;2023-08-31T11:40:58;93796.72;;;26.14
62930;BMP280;49036;42.782;23.108;2023-08-31T11:43:24;93801.50;;;25.71
62930;BMP280;49036;42.782;23.108;2023-08-31T11:45:50;93800.00;;;25.45
62930;BMP280;49036;42.782;23.108;2023-08-31T11:48:16;93795.63;;;25.26
62930;BMP280;49036;42.782;23.108;2023-08-31T11:50:41;93792.72;;;25.16
62930;BMP280;49036;42.782;23.108;2023-08-31T11:54:26;93785.34;;;27.25
62930;BMP280;49036;42.782;23.108;2023-08-31T11:56:52;93783.22;;;27.17
62930;BMP280;49036;42.782;23.108;2023-08-31T11:59:18;93766.59;;;27.85
62930;BMP280;49036;42.782;23.108;2023-08-31T12:01:46;93770.69;;;29.06
62930;BMP280;49036;42.782;23.108;2023-08-31T12:04:22;93774.31;;;29.04
62930;BMP280;49036;42.782;23.108;2023-08-31T12:07:01;93758.44;;;29.77
62930;BMP280;49036;42.782;23.108;2023-08-31T12:09:30;93756.72;;;30.86
62930;BMP280;49036;42.782;23.108;2023-08-31T12:11:55;93755.97;;;31.26
62930;BMP280;49036;42.782;23.108;2023-08-31T12:14:25;93746.91;;;31.14
62930;BMP280;49036;42.782;23.108;2023-08-31T12:17:19;93759.59;;;30.43
62930;BMP280;49036;42.782;23.108;2023-08-31T12:19:44;93749.16;;;30.23
62930;BMP280;49036;42.782;23.108;2023-08-31T12:22:11;93751.91;;;30.31
62930;BMP280;49036;42.782;23.108;2023-08-31T12:24:40;93740.19;;;30.88
62930;BMP280;49036;42.782;23.108;2023-08-31T12:27:06;93745.31;;;31.23
62930;BMP280;49036;42.782;23.108;2023-08-31T12:29:32;93748.09;;;31.62
62930;BMP280;49036;42.782;23.108;2023-08-31T12:31:58;93740.22;;;31.27
62930;BMP280;49036;42.782;23.108;2023-08-31T12:34:24;93750.16;;;30.93
62930;BMP280;49036;42.782;23.108;2023-08-31T12:36:49;93746.53;;;31.34
62930;BMP280;49036;42.782;23.108;2023-08-31T12:39:15;93741.50;;;31.32
62930;BMP280;49036;42.782;23.108;2023-08-31T12:41:40;93745.97;;;32.53
62930;BMP280;49036;42.782;23.108;2023-08-31T12:44:06;93753.03;;;33.13
62930;BMP280;49036;42.782;23.108;2023-08-31T12:46:32;93753.94;;;33.32
62930;BMP280;49036;42.782;23.108;2023-08-31T12:49:02;93753.91;;;32.21
62930;BMP280;49036;42.782;23.108;2023-08-31T12:51:29;93756.47;;;33.18
62930;BMP280;49036;42.782;23.108;2023-08-31T12:53:56;93733.25;;;34.42
62930;BMP280;49036;42.782;23.108;2023-08-31T12:56:21;93739.41;;;34.73
62930;BMP280;49036;42.782;23.108;2023-08-31T12:58:51;93754.16;;;34.19
62930;BMP280;49036;42.782;23.108;2023-08-31T13:01:17;93758.09;;;33.62
62930;BMP280;49036;42.782;23.108;2023-08-31T13:03:43;93761.38;;;31.77
62930;BMP280;49036;42.782;23.108;2023-08-31T13:06:09;93763.78;;;30.93
62930;BMP280;49036;42.782;23.108;2023-08-31T13:08:34;93762.09;;;29.08
62930;BMP280;49036;42.782;23.108;2023-08-31T13:11:00;93773.00;;;27.85
62930;BMP280;49036;42.782;23.108;2023-08-31T13:13:25;93756.78;;;27.53
62930;BMP280;49036;42.782;23.108;2023-08-31T13:15:51;93763.91;;;27.46
62930;BMP280;49036;42.782;23.108;2023-08-31T13:18:17;93763.09;;;27.74
62930;BMP280;49036;42.782;23.108;2023-08-31T13:20:52;93766.50;;;28.05
62930;BMP280;49036;42.782;23.108;2023-08-31T13:23:18;93767.16;;;28.12
62930;BMP280;49036;42.782;23.108;2023-08-31T13:25:44;93758.91;;;27.43
62930;BMP280;49036;42.782;23.108;2023-08-31T13:28:10;93769.44;;;27.89
62930;BMP280;49036;42.782;23.108;2023-08-31T13:30:36;93773.09;;;28.79
62930;BMP280;49036;42.782;23.108;2023-08-31T13:33:01;93765.53;;;29.82
62930;BMP280;49036;42.782;23.108;2023-08-31T13:35:27;93775.00;;;29.05
62930;BMP280;49036;42.782;23.108;2023-08-31T13:37:52;93782.94;;;28.02
62930;BMP280;49036;42.782;23.108;2023-08-31T13:40:18;93784.09;;;28.46
62930;BMP280;49036;42.782;23.108;2023-08-31T13:42:55;93769.47;;;28.84
62930;BMP280;49036;42.782;23.108;2023-08-31T13:47:44;93774.06;;;30.80
62930;BMP280;49036;42.782;23.108;2023-08-31T13:50:12;93764.25;;;31.42
62930;BMP280;49036;42.782;23.108;2023-08-31T13:52:38;93772.78;;;31.81
62930;BMP280;49036;42.782;23.108;2023-08-31T13:55:04;93789.63;;;31.30
62930;BMP280;49036;42.782;23.108;2023-08-31T13:57:30;93783.69;;;31.03
62930;BMP280;49036;42.782;23.108;2023-08-31T13:59:55;93787.28;;;31.40
62930;BMP280;49036;42.782;23.108;2023-08-31T14:02:21;93781.72;;;32.60
62930;BMP280;49036;42.782;23.108;2023-08-31T14:04:46;93791.66;;;31.35
62930;BMP280;49036;42.782;23.108;2023-08-31T14:07:12;93794.72;;;29.94
62930;BMP280;49036;42.782;23.108;2023-08-31T14:09:37;93807.84;;;28.06
62930;BMP280;49036;42.782;23.108;2023-08-31T14:12:03;93802.47;;;27.21
62930;BMP280;49036;42.782;23.108;2023-08-31T14:14:28;93800.22;;;25.92
62930;BMP280;49036;42.782;23.108;2023-08-31T14:16:54;93813.22;;;25.04
62930;BMP280;49036;42.782;23.108;2023-08-31T14:19:20;93810.50;;;24.38
62930;BMP280;49036;42.782;23.108;2023-08-31T14:21:47;93822.59;;;23.80
62930;BMP280;49036;42.782;23.108;2023-08-31T14:24:12;93819.28;;;23.46
62930;BMP280;49036;42.782;23.108;2023-08-31T14:26:38;93821.03;;;23.19
62930;BMP280;49036;42.782;23.108;2023-08-31T14:29:04;93827.00;;;22.93
62930;BMP280;49036;42.782;23.108;2023-08-31T14:31:29;93825.81;;;22.64